createdAt,value
2019-03-17T00:00:09.961Z,5.75
2019-03-17T00:00:44.905Z,5.63
2019-03-17T00:01:17.957Z,5.77
2019-03-17T00:01:57.223Z,5.76
2019-03-17T00:02:23.382Z,5.78
2019-03-17T00:02:54.560Z,5.78
2019-03-17T00:03:25.744Z,5.78
2019-03-17T00:03:56.900Z,5.78
2019-03-17T00:04:31.714Z,5.74
2019-03-17T00:05:01.308Z,5.78
2019-03-17T00:05:32.448Z,5.78
2019-03-17T00:06:03.617Z,5.79
2019-03-17T00:06:34.836Z,5.79
2019-03-17T00:07:05.993Z,5.79
2019-03-17T00:07:37.199Z,5.79
2019-03-17T00:08:08.377Z,5.80
2019-03-17T00:08:39.528Z,5.80
2019-03-17T00:09:10.697Z,5.81
2019-03-17T00:09:41.890Z,5.82
2019-03-17T00:10:13.282Z,5.82
2019-03-17T00:10:44.524Z,5.86
2019-03-17T00:11:15.731Z,5.86
2019-03-17T00:11:46.919Z,5.86
2019-03-17T00:12:18.095Z,5.87
2019-03-17T00:12:49.306Z,5.79
2019-03-17T00:13:20.516Z,5.79
2019-03-17T00:13:51.778Z,5.89
2019-03-17T00:14:22.984Z,5.89
2019-03-17T00:15:04.577Z,5.89
2019-03-17T00:15:27.253Z,5.81
2019-03-17T00:15:58.415Z,5.90
2019-03-17T00:16:30.700Z,5.81
2019-03-17T00:17:01.885Z,5.91
2019-03-17T00:17:33.083Z,5.89
2019-03-17T00:18:04.351Z,5.89
2019-03-17T00:18:35.545Z,5.92
2019-03-17T00:19:06.695Z,5.92
2019-03-17T00:19:37.905Z,5.91
2019-03-17T00:20:09.067Z,5.92
2019-03-17T00:20:40.286Z,5.93
2019-03-17T00:21:11.440Z,5.93
2019-03-17T00:21:42.648Z,5.94
2019-03-17T00:22:13.802Z,5.95
2019-03-17T00:22:45.052Z,5.95
2019-03-17T00:23:17.215Z,6.01
2019-03-17T00:23:48.421Z,5.92
2019-03-17T00:24:19.587Z,6.03
2019-03-17T00:24:51.808Z,6.04
2019-03-17T00:25:22.995Z,6.05
2019-03-17T00:25:54.204Z,6.05
2019-03-17T00:26:25.362Z,6.08
2019-03-17T00:26:56.582Z,5.98
2019-03-17T00:27:27.832Z,6.10
2019-03-17T00:27:59.046Z,6.11
2019-03-17T00:28:30.246Z,6.12
2019-03-17T00:29:01.536Z,6.11
2019-03-17T00:29:32.769Z,6.13
2019-03-17T00:30:08.147Z,6.13
2019-03-17T00:30:39.377Z,6.13
2019-03-17T00:31:22.884Z,6.06
2019-03-17T00:31:43.759Z,6.15
2019-03-17T00:32:14.993Z,6.15
2019-03-17T00:32:46.247Z,6.08
2019-03-17T00:33:17.499Z,6.18
2019-03-17T00:33:48.721Z,6.18
2019-03-17T00:34:19.947Z,6.19
2019-03-17T00:34:51.238Z,6.19
2019-03-17T00:35:22.413Z,6.20
2019-03-17T00:35:53.662Z,6.20
2019-03-17T00:36:24.855Z,6.21
2019-03-17T00:36:56.073Z,6.21
2019-03-17T00:37:27.241Z,6.22
2019-03-17T00:37:58.475Z,6.23
2019-03-17T00:38:29.681Z,6.24
2019-03-17T00:39:00.911Z,6.25
2019-03-17T00:39:32.068Z,6.25
2019-03-17T00:40:06.730Z,6.26
2019-03-17T00:40:37.883Z,6.17
2019-03-17T00:41:09.101Z,6.27
2019-03-17T00:41:40.254Z,6.23
2019-03-17T00:42:11.508Z,6.20
2019-03-17T00:42:42.669Z,6.20
2019-03-17T00:43:13.882Z,6.20
2019-03-17T00:43:45.055Z,6.31
2019-03-17T00:44:16.299Z,6.31
2019-03-17T00:44:47.519Z,6.31
2019-03-17T00:45:18.752Z,6.32
2019-03-17T00:45:49.985Z,6.32
2019-03-17T00:46:21.223Z,6.22
2019-03-17T00:46:52.388Z,6.32
2019-03-17T00:47:23.624Z,6.33
2019-03-17T00:47:54.788Z,6.34
2019-03-17T00:48:26.005Z,6.34
2019-03-17T00:48:57.240Z,6.33
2019-03-17T00:49:28.423Z,6.33
2019-03-17T00:49:59.621Z,6.33
2019-03-17T00:50:30.824Z,6.34
2019-03-17T00:51:02.018Z,6.34
2019-03-17T00:51:33.228Z,6.33
2019-03-17T00:52:04.502Z,6.33
2019-03-17T00:52:35.683Z,6.33
2019-03-17T00:53:06.874Z,6.26
2019-03-17T00:53:38.064Z,6.34
2019-03-17T00:54:09.316Z,6.33
2019-03-17T00:54:40.544Z,6.33
2019-03-17T00:55:11.731Z,6.24
2019-03-17T00:55:42.903Z,6.24
2019-03-17T00:56:14.104Z,6.34
2019-03-17T00:56:45.280Z,6.35
2019-03-17T00:57:16.520Z,6.35
2019-03-17T00:57:47.741Z,6.35
2019-03-17T00:58:18.920Z,6.35
2019-03-17T00:58:50.100Z,6.36
2019-03-17T00:59:21.351Z,6.34
2019-03-17T00:59:52.543Z,6.38
2019-03-17T01:00:23.763Z,6.40
2019-03-17T01:00:55.022Z,6.41
2019-03-17T01:01:26.213Z,6.41
2019-03-17T01:01:57.387Z,6.40
2019-03-17T01:02:28.574Z,6.33
2019-03-17T01:02:59.782Z,6.40
2019-03-17T01:03:30.971Z,6.40
2019-03-17T01:04:02.255Z,6.28
2019-03-17T01:04:33.399Z,6.39
2019-03-17T01:05:04.701Z,6.36
2019-03-17T01:05:36.867Z,6.22
2019-03-17T01:06:08.071Z,6.40
2019-03-17T01:06:39.219Z,6.41
2019-03-17T01:07:10.425Z,6.42
2019-03-17T01:07:41.583Z,6.43
2019-03-17T01:08:12.791Z,6.42
2019-03-17T01:08:43.956Z,6.42
2019-03-17T01:09:15.251Z,6.44
2019-03-17T01:09:46.445Z,6.45
2019-03-17T01:10:18.669Z,6.47
2019-03-17T01:10:49.827Z,6.47
2019-03-17T01:11:21.061Z,6.48
2019-03-17T01:11:52.215Z,6.48
2019-03-17T01:12:23.534Z,6.45
2019-03-17T01:12:54.666Z,6.48
2019-03-17T01:13:25.864Z,6.48
2019-03-17T01:13:57.020Z,6.50
2019-03-17T01:14:28.462Z,6.39
2019-03-17T01:14:59.628Z,6.40
2019-03-17T01:15:30.834Z,6.49
2019-03-17T01:16:02.028Z,6.51
2019-03-17T01:16:33.223Z,6.51
2019-03-17T01:17:04.385Z,6.51
2019-03-17T01:17:35.589Z,6.51
2019-03-17T01:18:06.762Z,6.43
2019-03-17T01:18:37.975Z,6.54
2019-03-17T01:19:09.200Z,6.44
2019-03-17T01:19:40.369Z,6.44
2019-03-17T01:20:11.562Z,6.54
2019-03-17T01:20:42.742Z,6.54
2019-03-17T01:21:13.943Z,6.45
2019-03-17T01:21:45.116Z,6.45
2019-03-17T01:22:16.345Z,6.56
2019-03-17T01:22:47.533Z,6.46
2019-03-17T01:23:18.715Z,6.46
2019-03-17T01:23:49.919Z,6.48
2019-03-17T01:24:21.107Z,6.57
2019-03-17T01:24:53.307Z,6.59
2019-03-17T01:25:24.754Z,6.59
2019-03-17T01:25:55.945Z,6.50
2019-03-17T01:26:27.131Z,6.60
2019-03-17T01:26:58.410Z,6.61
2019-03-17T01:27:30.627Z,6.61
2019-03-17T01:28:01.900Z,6.62
2019-03-17T01:28:33.149Z,6.62
2019-03-17T01:29:04.333Z,6.64
2019-03-17T01:29:35.507Z,6.65
2019-03-17T01:30:09.743Z,6.66
2019-03-17T01:30:41.927Z,6.66
2019-03-17T01:31:13.111Z,6.65
2019-03-17T01:31:44.291Z,6.66
2019-03-17T01:32:15.485Z,6.59
2019-03-17T01:32:46.680Z,6.68
2019-03-17T01:33:17.864Z,6.68
2019-03-17T01:33:49.055Z,6.68
2019-03-17T01:34:20.306Z,6.68
2019-03-17T01:34:51.579Z,6.68
2019-03-17T01:35:22.835Z,6.68
2019-03-17T01:35:54.030Z,6.68
2019-03-17T01:36:25.456Z,6.69
2019-03-17T01:36:56.612Z,6.58
2019-03-17T01:37:27.838Z,6.69
2019-03-17T01:37:59.008Z,6.70
2019-03-17T01:38:31.210Z,6.70
2019-03-17T01:39:04.588Z,6.70
2019-03-17T01:39:35.809Z,6.70
2019-03-17T01:40:09.156Z,6.70
2019-03-17T01:40:40.356Z,6.71
2019-03-17T01:41:11.516Z,6.57
2019-03-17T01:41:42.725Z,6.67
2019-03-17T01:42:13.890Z,6.70
2019-03-17T01:42:45.103Z,6.74
2019-03-17T01:43:16.270Z,6.75
2019-03-17T01:43:47.468Z,6.75
2019-03-17T01:44:18.679Z,6.72
2019-03-17T01:44:49.895Z,6.68
2019-03-17T01:45:21.042Z,6.68
2019-03-17T01:45:52.252Z,6.80
2019-03-17T01:46:23.421Z,6.71
2019-03-17T01:46:54.937Z,6.81
2019-03-17T01:47:27.746Z,6.81
2019-03-17T01:47:59.203Z,6.73
2019-03-17T01:48:31.381Z,6.83
2019-03-17T01:49:02.655Z,6.83
2019-03-17T01:49:33.869Z,6.85
2019-03-17T01:50:06.941Z,6.86
2019-03-17T01:50:38.143Z,6.86
2019-03-17T01:51:09.293Z,6.87
2019-03-17T01:51:40.515Z,6.88
2019-03-17T01:52:11.687Z,6.89
2019-03-17T01:52:42.874Z,6.91
2019-03-17T01:53:14.031Z,6.91
2019-03-17T01:53:45.255Z,6.81
2019-03-17T01:54:16.455Z,6.91
2019-03-17T01:54:47.679Z,6.92
2019-03-17T01:55:18.841Z,6.92
2019-03-17T01:55:51.043Z,6.92
2019-03-17T01:56:22.186Z,6.92
2019-03-17T01:56:53.393Z,6.92
2019-03-17T01:57:24.874Z,6.92
2019-03-17T01:57:56.095Z,6.93
2019-03-17T01:58:27.262Z,6.85
2019-03-17T01:58:58.455Z,6.85
2019-03-17T01:59:29.621Z,6.96
2019-03-17T02:00:00.874Z,6.96
2019-03-17T02:00:32.030Z,6.96
2019-03-17T02:01:03.252Z,6.99
2019-03-17T02:01:34.418Z,6.99
2019-03-17T02:02:05.628Z,6.89
2019-03-17T02:02:36.833Z,7.01
2019-03-17T02:03:08.084Z,7.01
2019-03-17T02:03:39.245Z,7.00
2019-03-17T02:04:10.454Z,7.01
2019-03-17T02:04:41.653Z,7.02
2019-03-17T02:05:21.949Z,7.01
2019-03-17T02:05:46.036Z,7.02
2019-03-17T02:06:17.282Z,7.03
2019-03-17T02:06:48.524Z,6.93
2019-03-17T02:07:19.765Z,6.93
2019-03-17T02:07:50.988Z,6.93
2019-03-17T02:08:22.240Z,6.93
2019-03-17T02:08:53.477Z,7.04
2019-03-17T02:09:25.017Z,7.03
2019-03-17T02:09:56.225Z,7.04
2019-03-17T02:10:27.402Z,7.03
2019-03-17T02:10:58.628Z,6.93
2019-03-17T02:11:29.792Z,6.93
2019-03-17T02:12:00.997Z,6.93
2019-03-17T02:12:32.167Z,7.05
2019-03-17T02:13:03.398Z,7.06
2019-03-17T02:13:34.545Z,7.05
2019-03-17T02:14:05.757Z,7.05
2019-03-17T02:14:36.910Z,7.07
2019-03-17T02:15:08.220Z,7.08
2019-03-17T02:15:39.415Z,7.08
2019-03-17T02:16:10.681Z,7.00
2019-03-17T02:16:41.826Z,7.00
2019-03-17T02:17:13.152Z,7.10
2019-03-17T02:17:44.325Z,7.11
2019-03-17T02:18:15.543Z,7.11
2019-03-17T02:18:46.702Z,7.02
2019-03-17T02:19:17.919Z,7.04
2019-03-17T02:19:49.133Z,7.05
2019-03-17T02:20:20.391Z,7.05
2019-03-17T02:20:51.553Z,7.16
2019-03-17T02:21:22.762Z,7.15
2019-03-17T02:21:53.930Z,7.15
2019-03-17T02:22:25.496Z,7.15
2019-03-17T02:22:56.762Z,7.15
2019-03-17T02:23:28.226Z,7.03
2019-03-17T02:24:00.364Z,7.12
2019-03-17T02:24:31.576Z,7.13
2019-03-17T02:25:04.152Z,7.03
2019-03-17T02:25:35.416Z,7.03
2019-03-17T02:26:06.659Z,7.06
2019-03-17T02:26:37.936Z,7.15
2019-03-17T02:27:09.167Z,7.15
2019-03-17T02:27:40.402Z,7.14
2019-03-17T02:28:11.636Z,7.14
2019-03-17T02:28:42.868Z,7.15
2019-03-17T02:29:14.152Z,7.15
2019-03-17T02:29:45.393Z,7.16
2019-03-17T02:30:16.614Z,7.16
2019-03-17T02:30:47.799Z,7.09
2019-03-17T02:31:19.052Z,7.09
2019-03-17T02:31:50.268Z,7.11
2019-03-17T02:32:22.499Z,7.10
2019-03-17T02:32:53.762Z,7.10
2019-03-17T02:33:25.286Z,7.20
2019-03-17T02:33:56.437Z,7.19
2019-03-17T02:34:27.689Z,7.20
2019-03-17T02:34:58.829Z,7.20
2019-03-17T02:35:38.747Z,7.20
2019-03-17T02:36:03.130Z,7.20
2019-03-17T02:36:35.351Z,7.20
2019-03-17T02:37:06.519Z,7.21
2019-03-17T02:37:37.712Z,7.13
2019-03-17T02:38:09.865Z,7.13
2019-03-17T02:38:41.074Z,7.13
2019-03-17T02:39:12.231Z,7.15
2019-03-17T02:39:43.458Z,7.18
2019-03-17T02:40:14.703Z,7.14
2019-03-17T02:40:46.027Z,7.14
2019-03-17T02:41:17.263Z,7.14
2019-03-17T02:41:48.491Z,7.23
2019-03-17T02:42:19.827Z,7.23
2019-03-17T02:42:52.083Z,7.24
2019-03-17T02:43:23.309Z,7.23
2019-03-17T02:43:54.918Z,7.23
2019-03-17T02:44:26.163Z,7.22
2019-03-17T02:44:57.691Z,7.23
2019-03-17T02:45:28.890Z,7.13
2019-03-17T02:46:02.853Z,7.13
2019-03-17T02:46:33.164Z,7.23
2019-03-17T02:47:04.327Z,7.23
2019-03-17T02:47:35.530Z,7.23
2019-03-17T02:48:06.713Z,7.23
2019-03-17T02:48:37.937Z,7.23
2019-03-17T02:49:09.188Z,7.25
2019-03-17T02:49:40.460Z,7.24
2019-03-17T02:50:11.652Z,7.24
2019-03-17T02:50:42.805Z,7.25
2019-03-17T02:51:14.006Z,7.25
2019-03-17T02:51:45.182Z,7.21
2019-03-17T02:52:16.480Z,7.16
2019-03-17T02:52:47.665Z,7.27
2019-03-17T02:53:18.889Z,7.27
2019-03-17T02:53:50.068Z,7.27
2019-03-17T02:54:21.364Z,7.26
2019-03-17T02:54:52.514Z,7.26
2019-03-17T02:55:23.740Z,7.27
2019-03-17T02:55:54.939Z,7.27
2019-03-17T02:56:26.153Z,7.28
2019-03-17T02:56:57.299Z,7.29
2019-03-17T02:57:28.516Z,7.25
2019-03-17T02:57:59.668Z,7.30
2019-03-17T02:58:30.876Z,7.29
2019-03-17T02:59:02.058Z,7.30
2019-03-17T02:59:33.281Z,7.30
2019-03-17T03:00:08.643Z,7.31
2019-03-17T03:00:39.834Z,7.31
2019-03-17T03:01:11.049Z,7.28
2019-03-17T03:01:42.211Z,7.30
2019-03-17T03:02:13.388Z,7.32
2019-03-17T03:02:44.581Z,7.33
2019-03-17T03:03:15.764Z,7.27
2019-03-17T03:03:46.942Z,7.20
2019-03-17T03:04:18.131Z,7.25
2019-03-17T03:04:49.311Z,7.36
2019-03-17T03:05:20.535Z,7.25
2019-03-17T03:05:55.122Z,7.37
2019-03-17T03:06:24.895Z,7.28
2019-03-17T03:06:56.090Z,7.39
2019-03-17T03:07:27.697Z,7.29
2019-03-17T03:07:58.853Z,7.29
2019-03-17T03:08:31.083Z,7.40
2019-03-17T03:09:05.147Z,7.41
2019-03-17T03:09:36.388Z,7.31
2019-03-17T03:10:07.607Z,7.42
2019-03-17T03:10:38.808Z,7.42
2019-03-17T03:11:09.956Z,7.31
2019-03-17T03:11:41.158Z,7.42
2019-03-17T03:12:12.316Z,7.43
2019-03-17T03:12:43.525Z,7.43
2019-03-17T03:13:14.711Z,7.33
2019-03-17T03:13:46.008Z,7.33
2019-03-17T03:14:17.168Z,7.33
2019-03-17T03:14:48.472Z,7.33
2019-03-17T03:15:19.654Z,7.44
2019-03-17T03:15:50.855Z,7.45
2019-03-17T03:16:22.020Z,7.45
2019-03-17T03:16:53.372Z,7.38
2019-03-17T03:17:24.872Z,7.46
2019-03-17T03:17:56.166Z,7.45
2019-03-17T03:18:27.692Z,7.45
2019-03-17T03:18:58.934Z,7.35
2019-03-17T03:19:30.078Z,7.35
2019-03-17T03:20:01.263Z,7.45
2019-03-17T03:20:32.441Z,7.45
2019-03-17T03:21:03.626Z,7.35
2019-03-17T03:21:34.804Z,7.35
2019-03-17T03:22:06.073Z,7.35
2019-03-17T03:22:37.290Z,7.35
2019-03-17T03:23:08.502Z,7.45
2019-03-17T03:23:39.678Z,7.45
2019-03-17T03:24:10.858Z,7.46
2019-03-17T03:24:42.042Z,7.46
2019-03-17T03:25:13.246Z,7.47
2019-03-17T03:25:44.442Z,7.47
2019-03-17T03:26:15.599Z,7.47
2019-03-17T03:26:46.813Z,7.36
2019-03-17T03:27:17.988Z,7.36
2019-03-17T03:27:49.201Z,7.36
2019-03-17T03:28:20.575Z,7.47
2019-03-17T03:28:51.768Z,7.47
2019-03-17T03:29:22.929Z,7.46
2019-03-17T03:29:54.139Z,7.47
2019-03-17T03:30:25.306Z,7.47
2019-03-17T03:30:56.533Z,7.47
2019-03-17T03:31:27.801Z,7.47
2019-03-17T03:31:59.047Z,7.47
2019-03-17T03:32:30.282Z,7.38
2019-03-17T03:33:01.475Z,7.38
2019-03-17T03:33:32.639Z,7.48
2019-03-17T03:34:03.967Z,7.49
2019-03-17T03:34:35.210Z,7.50
2019-03-17T03:35:07.992Z,7.50
2019-03-17T03:35:39.265Z,7.50
2019-03-17T03:36:11.866Z,7.51
2019-03-17T03:36:43.382Z,7.51
2019-03-17T03:37:14.589Z,7.42
2019-03-17T03:37:45.747Z,7.52
2019-03-17T03:38:16.949Z,7.52
2019-03-17T03:38:48.114Z,7.51
2019-03-17T03:39:19.349Z,7.51
2019-03-17T03:39:50.593Z,7.50
2019-03-17T03:40:21.803Z,7.51
2019-03-17T03:40:52.986Z,7.50
2019-03-17T03:41:24.178Z,7.39
2019-03-17T03:41:56.472Z,7.39
2019-03-17T03:42:27.806Z,7.49
2019-03-17T03:42:58.974Z,7.49
2019-03-17T03:43:30.157Z,7.49
2019-03-17T03:44:01.326Z,7.41
2019-03-17T03:44:32.505Z,7.49
2019-03-17T03:45:11.365Z,7.47
2019-03-17T03:45:42.554Z,7.46
2019-03-17T03:46:13.729Z,7.46
2019-03-17T03:46:44.907Z,7.48
2019-03-17T03:47:16.091Z,7.38
2019-03-17T03:47:47.281Z,7.37
2019-03-17T03:48:18.505Z,7.43
2019-03-17T03:48:49.717Z,7.48
2019-03-17T03:49:20.942Z,7.48
2019-03-17T03:49:52.119Z,7.48
2019-03-17T03:50:23.325Z,7.47
2019-03-17T03:50:54.761Z,7.44
2019-03-17T03:51:26.013Z,7.49
2019-03-17T03:51:57.201Z,7.49
2019-03-17T03:52:28.403Z,7.49
2019-03-17T03:53:00.596Z,7.39
2019-03-17T03:53:31.797Z,7.50
2019-03-17T03:54:02.998Z,7.50
2019-03-17T03:54:34.262Z,7.50
2019-03-17T03:55:07.178Z,7.50
2019-03-17T03:55:41.923Z,7.50
2019-03-17T03:56:11.444Z,7.49
2019-03-17T03:56:42.614Z,7.49
2019-03-17T03:57:14.818Z,7.41
2019-03-17T03:57:45.999Z,7.41
2019-03-17T03:58:17.164Z,7.50
2019-03-17T03:58:48.348Z,7.49
2019-03-17T03:59:19.524Z,7.49
2019-03-17T03:59:50.716Z,7.50
2019-03-17T04:00:21.888Z,7.50
2019-03-17T04:00:53.073Z,7.51
2019-03-17T04:01:24.248Z,7.51
2019-03-17T04:01:55.430Z,7.51
2019-03-17T04:02:26.608Z,7.51
2019-03-17T04:02:57.827Z,7.53
2019-03-17T04:03:29.000Z,7.46
2019-03-17T04:04:00.181Z,7.53
2019-03-17T04:04:31.370Z,7.53
2019-03-17T04:05:04.649Z,7.53
2019-03-17T04:05:35.838Z,7.44
2019-03-17T04:06:07.041Z,7.54
2019-03-17T04:06:38.186Z,7.46
2019-03-17T04:07:09.393Z,7.55
2019-03-17T04:07:40.548Z,7.55
2019-03-17T04:08:11.746Z,7.53
2019-03-17T04:08:42.912Z,7.56
2019-03-17T04:09:14.130Z,7.58
2019-03-17T04:09:45.425Z,7.57
2019-03-17T04:10:16.633Z,7.48
2019-03-17T04:10:47.783Z,7.48
2019-03-17T04:11:19.082Z,7.47
2019-03-17T04:11:50.247Z,7.47
2019-03-17T04:12:21.486Z,7.58
2019-03-17T04:12:52.644Z,7.58
2019-03-17T04:13:23.845Z,7.58
2019-03-17T04:13:55.059Z,7.59
2019-03-17T04:14:26.274Z,7.59
2019-03-17T04:14:57.804Z,7.59
2019-03-17T04:15:29.011Z,7.60
2019-03-17T04:16:00.170Z,7.60
2019-03-17T04:16:31.385Z,7.60
2019-03-17T04:17:02.588Z,7.60
2019-03-17T04:17:33.802Z,7.61
2019-03-17T04:18:05.112Z,7.61
2019-03-17T04:18:36.292Z,7.61
2019-03-17T04:19:07.503Z,7.61
2019-03-17T04:19:38.656Z,7.61
2019-03-17T04:20:10.633Z,7.61
2019-03-17T04:20:42.086Z,7.51
2019-03-17T04:21:13.317Z,7.51
2019-03-17T04:21:44.505Z,7.60
2019-03-17T04:22:15.686Z,7.61
2019-03-17T04:22:46.894Z,7.62
2019-03-17T04:23:18.135Z,7.61
2019-03-17T04:23:49.322Z,7.60
2019-03-17T04:24:20.522Z,7.60
2019-03-17T04:24:51.713Z,7.60
2019-03-17T04:25:22.907Z,7.54
2019-03-17T04:25:54.088Z,7.61
2019-03-17T04:26:25.426Z,7.61
2019-03-17T04:26:56.589Z,7.62
2019-03-17T04:27:27.820Z,7.62
2019-03-17T04:27:58.972Z,7.62
2019-03-17T04:28:30.242Z,7.62
2019-03-17T04:29:01.410Z,7.62
2019-03-17T04:29:32.622Z,7.62
2019-03-17T04:30:07.893Z,7.62
2019-03-17T04:30:39.152Z,7.62
2019-03-17T04:31:14.122Z,7.62
2019-03-17T04:31:43.403Z,7.54
2019-03-17T04:32:14.567Z,7.62
2019-03-17T04:32:46.766Z,7.64
2019-03-17T04:33:17.965Z,7.53
2019-03-17T04:33:49.162Z,7.53
2019-03-17T04:34:20.333Z,7.57
2019-03-17T04:34:51.542Z,7.64
2019-03-17T04:35:22.703Z,7.64
2019-03-17T04:35:53.927Z,7.65
2019-03-17T04:36:39.163Z,7.66
2019-03-17T04:36:58.386Z,7.57
2019-03-17T04:37:29.553Z,7.57
2019-03-17T04:38:00.720Z,7.60
2019-03-17T04:38:31.944Z,7.67
2019-03-17T04:39:04.988Z,7.59
2019-03-17T04:39:36.146Z,7.67
2019-03-17T04:40:08.161Z,7.66
2019-03-17T04:40:39.400Z,7.62
2019-03-17T04:41:10.666Z,7.65
2019-03-17T04:41:41.839Z,7.69
2019-03-17T04:42:13.024Z,7.68
2019-03-17T04:42:45.184Z,7.68
2019-03-17T04:43:16.412Z,7.69
2019-03-17T04:43:47.658Z,7.69
2019-03-17T04:44:21.049Z,7.69
2019-03-17T04:44:51.894Z,7.65
2019-03-17T04:45:23.054Z,7.58
2019-03-17T04:45:54.224Z,7.59
2019-03-17T04:46:25.404Z,7.59
2019-03-17T04:46:56.588Z,7.60
2019-03-17T04:47:27.758Z,7.69
2019-03-17T04:47:58.976Z,7.69
2019-03-17T04:48:30.140Z,7.69
2019-03-17T04:49:01.413Z,7.60
2019-03-17T04:49:32.680Z,7.72
2019-03-17T04:50:05.849Z,7.72
2019-03-17T04:50:37.080Z,7.73
2019-03-17T04:51:08.242Z,7.73
2019-03-17T04:51:39.474Z,7.64
2019-03-17T04:52:10.632Z,7.64
2019-03-17T04:52:41.845Z,7.73
2019-03-17T04:53:13.005Z,7.64
2019-03-17T04:53:44.225Z,7.75
2019-03-17T04:54:15.389Z,7.75
2019-03-17T04:54:46.605Z,7.75
2019-03-17T04:55:17.772Z,7.65
2019-03-17T04:55:48.999Z,7.65
2019-03-17T04:56:21.209Z,7.65
2019-03-17T04:56:52.497Z,7.74
2019-03-17T04:57:24.809Z,7.75
2019-03-17T04:57:55.995Z,7.75
2019-03-17T04:58:27.151Z,7.65
2019-03-17T04:58:58.387Z,7.74
2019-03-17T04:59:29.553Z,7.74
2019-03-17T05:00:00.755Z,7.65
2019-03-17T05:00:31.904Z,7.75
2019-03-17T05:01:03.112Z,7.75
2019-03-17T05:01:34.268Z,7.75
2019-03-17T05:02:05.482Z,7.75
2019-03-17T05:02:36.635Z,7.66
2019-03-17T05:03:07.847Z,7.66
2019-03-17T05:03:39.010Z,7.73
2019-03-17T05:04:10.216Z,7.69
2019-03-17T05:04:41.418Z,7.65
2019-03-17T05:05:12.619Z,7.65
2019-03-17T05:05:44.781Z,7.75
2019-03-17T05:06:15.983Z,7.75
2019-03-17T05:06:52.406Z,7.72
2019-03-17T05:07:20.319Z,7.75
2019-03-17T05:07:51.536Z,7.67
2019-03-17T05:08:22.760Z,7.67
2019-03-17T05:08:55.240Z,7.76
2019-03-17T05:09:26.512Z,7.75
2019-03-17T05:09:57.812Z,7.76
2019-03-17T05:10:29.033Z,7.76
2019-03-17T05:11:00.263Z,7.77
2019-03-17T05:11:31.495Z,7.76
2019-03-17T05:12:02.942Z,7.76
2019-03-17T05:12:34.100Z,7.76
2019-03-17T05:13:05.321Z,7.76
2019-03-17T05:13:37.487Z,7.76
2019-03-17T05:14:08.714Z,7.76
2019-03-17T05:14:39.879Z,7.76
2019-03-17T05:15:11.089Z,7.76
2019-03-17T05:15:42.253Z,7.77
2019-03-17T05:16:13.475Z,7.67
2019-03-17T05:16:44.622Z,7.67
2019-03-17T05:17:15.838Z,7.78
2019-03-17T05:17:46.987Z,7.77
2019-03-17T05:18:18.186Z,7.78
2019-03-17T05:18:49.353Z,7.69
2019-03-17T05:19:20.527Z,7.78
2019-03-17T05:19:51.731Z,7.69
2019-03-17T05:20:22.887Z,7.69
2019-03-17T05:20:54.055Z,7.78
2019-03-17T05:21:25.389Z,7.79
2019-03-17T05:21:56.551Z,7.79
2019-03-17T05:22:27.746Z,7.72
2019-03-17T05:22:58.923Z,7.80
2019-03-17T05:23:30.197Z,7.80
2019-03-17T05:24:01.421Z,7.80
2019-03-17T05:24:32.591Z,7.80
2019-03-17T05:25:05.291Z,7.81
2019-03-17T05:25:36.468Z,7.83
2019-03-17T05:26:07.648Z,7.83
2019-03-17T05:26:38.821Z,7.83
2019-03-17T05:27:10.019Z,7.83
2019-03-17T05:27:41.183Z,7.85
2019-03-17T05:28:12.396Z,7.85
2019-03-17T05:28:43.553Z,7.84
2019-03-17T05:29:14.752Z,7.73
2019-03-17T05:29:45.920Z,7.85
2019-03-17T05:30:17.112Z,7.85
2019-03-17T05:30:48.278Z,7.85
2019-03-17T05:31:19.483Z,7.80
2019-03-17T05:31:50.648Z,7.86
2019-03-17T05:32:21.855Z,7.79
2019-03-17T05:32:53.008Z,7.85
2019-03-17T05:33:24.208Z,7.86
2019-03-17T05:33:55.370Z,7.86
2019-03-17T05:34:26.572Z,7.85
2019-03-17T05:34:57.744Z,7.87
2019-03-17T05:35:28.958Z,7.86
2019-03-17T05:36:00.122Z,7.86
2019-03-17T05:36:31.354Z,7.87
2019-03-17T05:37:06.621Z,7.87
2019-03-17T05:37:35.629Z,7.88
2019-03-17T05:38:06.810Z,7.78
2019-03-17T05:38:38.008Z,7.78
2019-03-17T05:39:09.177Z,7.85
2019-03-17T05:39:40.372Z,7.90
2019-03-17T05:40:11.532Z,7.90
2019-03-17T05:40:42.732Z,7.90
2019-03-17T05:41:13.899Z,7.90
2019-03-17T05:41:45.101Z,7.81
2019-03-17T05:42:16.289Z,7.92
2019-03-17T05:42:47.459Z,7.91
2019-03-17T05:43:18.648Z,7.91
2019-03-17T05:43:49.829Z,7.92
2019-03-17T05:44:21.109Z,7.83
2019-03-17T05:44:52.291Z,7.83
2019-03-17T05:45:23.476Z,7.94
2019-03-17T05:45:54.792Z,7.94
2019-03-17T05:46:26.080Z,7.94
2019-03-17T05:46:57.297Z,7.94
2019-03-17T05:47:28.471Z,7.97
2019-03-17T05:47:59.653Z,7.96
2019-03-17T05:48:30.989Z,7.97
2019-03-17T05:49:02.167Z,7.97
2019-03-17T05:49:33.435Z,7.98
2019-03-17T05:50:07.282Z,8.00
2019-03-17T05:50:38.445Z,7.99
2019-03-17T05:51:09.592Z,7.99
2019-03-17T05:51:40.789Z,7.91
2019-03-17T05:52:11.950Z,7.91
2019-03-17T05:52:43.123Z,8.02
2019-03-17T05:53:14.312Z,8.01
2019-03-17T05:53:45.498Z,8.02
2019-03-17T05:54:16.700Z,8.02
2019-03-17T05:54:47.888Z,8.03
2019-03-17T05:55:19.084Z,8.03
2019-03-17T05:55:50.265Z,8.03
2019-03-17T05:56:21.443Z,7.95
2019-03-17T05:56:52.640Z,8.05
2019-03-17T05:57:23.868Z,8.05
2019-03-17T05:57:55.244Z,8.05
2019-03-17T05:58:26.507Z,7.99
2019-03-17T05:58:57.654Z,7.96
2019-03-17T05:59:28.889Z,8.07
2019-03-17T06:00:00.078Z,8.08
2019-03-17T06:00:31.282Z,8.08
2019-03-17T06:01:02.460Z,8.10
2019-03-17T06:01:33.674Z,8.00
2019-03-17T06:02:04.846Z,8.10
2019-03-17T06:02:36.051Z,8.10
2019-03-17T06:03:07.224Z,8.01
2019-03-17T06:03:38.529Z,8.01
2019-03-17T06:04:09.687Z,8.12
2019-03-17T06:04:40.915Z,8.12
2019-03-17T06:05:12.173Z,8.11
2019-03-17T06:05:43.427Z,8.13
2019-03-17T06:06:14.586Z,8.13
2019-03-17T06:06:45.807Z,8.14
2019-03-17T06:07:18.896Z,7.98
2019-03-17T06:07:51.086Z,8.12
2019-03-17T06:08:22.240Z,8.06
2019-03-17T06:08:53.433Z,8.06
2019-03-17T06:09:24.589Z,8.16
2019-03-17T06:09:55.812Z,8.19
2019-03-17T06:10:26.971Z,8.19
2019-03-17T06:11:00.007Z,8.10
2019-03-17T06:11:32.169Z,8.10
2019-03-17T06:12:03.401Z,8.09
2019-03-17T06:12:34.601Z,8.09
2019-03-17T06:13:05.775Z,8.19
2019-03-17T06:13:36.959Z,8.17
2019-03-17T06:14:08.147Z,8.18
2019-03-17T06:14:39.334Z,8.18
2019-03-17T06:15:10.670Z,8.12
2019-03-17T06:15:41.832Z,8.21
2019-03-17T06:16:13.015Z,8.22
2019-03-17T06:16:44.194Z,8.22
2019-03-17T06:17:15.377Z,8.13
2019-03-17T06:17:46.572Z,8.24
2019-03-17T06:18:17.806Z,8.24
2019-03-17T06:18:49.001Z,8.25
2019-03-17T06:19:20.175Z,8.27
2019-03-17T06:19:51.332Z,8.27
2019-03-17T06:20:22.544Z,8.27
2019-03-17T06:20:53.732Z,8.28
2019-03-17T06:21:25.197Z,8.27
2019-03-17T06:22:00.372Z,8.27
2019-03-17T06:22:30.656Z,8.28
2019-03-17T06:23:01.900Z,8.29
2019-03-17T06:23:33.113Z,8.30
2019-03-17T06:24:04.298Z,8.31
2019-03-17T06:24:35.473Z,8.31
2019-03-17T06:25:09.733Z,8.31
2019-03-17T06:25:40.931Z,8.31
2019-03-17T06:26:12.123Z,8.32
2019-03-17T06:26:43.318Z,8.32
2019-03-17T06:27:14.514Z,8.32
2019-03-17T06:27:45.733Z,8.32
2019-03-17T06:28:16.918Z,8.23
2019-03-17T06:28:48.111Z,8.23
2019-03-17T06:29:19.381Z,8.33
2019-03-17T06:29:50.588Z,8.33
2019-03-17T06:30:21.827Z,8.33
2019-03-17T06:30:53.031Z,8.34
2019-03-17T06:31:24.187Z,8.34
2019-03-17T06:31:55.593Z,8.35
2019-03-17T06:32:26.755Z,8.37
2019-03-17T06:32:58.075Z,8.39
2019-03-17T06:33:29.227Z,8.39
2019-03-17T06:34:01.435Z,8.40
2019-03-17T06:34:32.593Z,8.40
2019-03-17T06:35:04.495Z,8.41
2019-03-17T06:35:35.662Z,8.40
2019-03-17T06:36:06.982Z,8.41
2019-03-17T06:36:38.146Z,8.41
2019-03-17T06:37:09.347Z,8.42
2019-03-17T06:37:41.498Z,8.43
2019-03-17T06:38:12.690Z,8.43
2019-03-17T06:38:43.850Z,8.43
2019-03-17T06:39:15.016Z,8.40
2019-03-17T06:39:46.212Z,8.45
2019-03-17T06:40:17.379Z,8.45
2019-03-17T06:40:48.538Z,8.47
2019-03-17T06:41:19.717Z,8.47
2019-03-17T06:41:50.918Z,8.46
2019-03-17T06:42:22.214Z,8.44
2019-03-17T06:42:53.400Z,8.47
2019-03-17T06:43:24.981Z,8.49
2019-03-17T06:43:56.138Z,8.48
2019-03-17T06:44:27.496Z,8.49
2019-03-17T06:44:58.658Z,8.49
2019-03-17T06:45:29.810Z,8.49
2019-03-17T06:46:01.002Z,8.50
2019-03-17T06:46:32.169Z,8.51
2019-03-17T06:47:05.819Z,8.40
2019-03-17T06:47:36.534Z,8.51
2019-03-17T06:48:07.729Z,8.53
2019-03-17T06:48:38.880Z,8.53
2019-03-17T06:49:10.094Z,8.53
2019-03-17T06:49:41.311Z,8.54
2019-03-17T06:50:15.525Z,8.54
2019-03-17T06:50:46.705Z,8.53
2019-03-17T06:51:17.913Z,8.56
2019-03-17T06:51:49.134Z,8.56
2019-03-17T06:52:20.309Z,8.57
2019-03-17T06:52:53.486Z,8.57
2019-03-17T06:53:24.901Z,8.55
2019-03-17T06:53:56.862Z,8.55
2019-03-17T06:54:28.165Z,8.57
2019-03-17T06:54:59.365Z,8.58
2019-03-17T06:55:30.560Z,8.58
2019-03-17T06:56:01.741Z,8.58
2019-03-17T06:56:32.921Z,8.60
2019-03-17T06:57:04.105Z,8.60
2019-03-17T06:57:35.282Z,8.61